createdAt,value
2018-02-22T00:00:38.174Z,-2.00
2018-02-22T00:03:07.177Z,-2.10
2018-02-22T00:05:36.168Z,-2.10
2018-02-22T00:08:05.298Z,-2.10
2018-02-22T00:10:33.764Z,-2.10
2018-02-22T00:13:01.983Z,-2.10
2018-02-22T00:15:31.096Z,-2.20
2018-02-22T00:18:00.205Z,-2.20
2018-02-22T00:20:28.368Z,-2.30
2018-02-22T00:22:57.388Z,-2.30
2018-02-22T00:25:26.889Z,-2.30
2018-02-22T00:27:55.186Z,-2.30
2018-02-22T00:30:23.417Z,-2.30
2018-02-22T00:32:52.503Z,-2.30
2018-02-22T00:35:20.852Z,-2.30
2018-02-22T00:37:49.375Z,-2.40
2018-02-22T00:40:17.697Z,-2.40
2018-02-22T00:42:46.281Z,-2.40
2018-02-22T00:45:14.861Z,-2.40
2018-02-22T00:47:43.246Z,-2.40
2018-02-22T00:50:11.705Z,-2.40
2018-02-22T00:52:40.868Z,-2.60
2018-02-22T00:55:09.459Z,-2.60
2018-02-22T00:57:37.659Z,-2.50
2018-02-22T01:00:05.894Z,-2.60
2018-02-22T01:02:34.905Z,-2.60
2018-02-22T01:05:03.991Z,-2.60
2018-02-22T01:07:32.992Z,-2.60
2018-02-22T01:10:02.113Z,-2.60
2018-02-22T01:12:31.066Z,-2.70
2018-02-22T01:15:00.141Z,-2.70
2018-02-22T01:17:28.391Z,-2.80
2018-02-22T01:19:56.846Z,-2.70
2018-02-22T01:22:25.091Z,-2.70
2018-02-22T01:24:53.381Z,-2.70
2018-02-22T01:27:22.380Z,-2.80
2018-02-22T01:29:51.358Z,-2.90
2018-02-22T01:32:20.446Z,-2.90
2018-02-22T01:34:48.655Z,-2.90
2018-02-22T01:37:16.868Z,-2.90
2018-02-22T01:39:45.138Z,-3.00
2018-02-22T01:42:13.364Z,-3.00
2018-02-22T01:44:42.335Z,-3.00
2018-02-22T01:47:10.572Z,-3.00
2018-02-22T01:49:38.812Z,-3.00
2018-02-22T01:52:07.785Z,-3.00
2018-02-22T01:54:38.473Z,-3.00
2018-02-22T01:57:06.683Z,-3.10
2018-02-22T01:59:34.909Z,-3.10
2018-02-22T02:02:03.142Z,-3.10
2018-02-22T02:04:31.347Z,-3.10
2018-02-22T02:06:59.621Z,-3.00
2018-02-22T02:09:27.856Z,-3.10
2018-02-22T02:11:56.057Z,-3.10
2018-02-22T02:14:25.033Z,-3.10
2018-02-22T02:16:53.357Z,-3.20
2018-02-22T02:19:21.569Z,-3.10
2018-02-22T02:21:49.768Z,-3.20
2018-02-22T02:24:18.749Z,-3.20
2018-02-22T02:26:46.953Z,-3.20
2018-02-22T02:29:15.244Z,-3.20
2018-02-22T02:31:43.475Z,-3.20
2018-02-22T02:34:11.721Z,-3.20
2018-02-22T02:36:40.053Z,-3.30
2018-02-22T02:39:09.150Z,-3.40
2018-02-22T02:41:38.219Z,-3.40
2018-02-22T02:44:06.544Z,-3.40
2018-02-22T02:46:34.869Z,-3.40
2018-02-22T02:49:03.176Z,-3.50
2018-02-22T02:51:32.148Z,-3.50
2018-02-22T02:54:00.432Z,-3.50
2018-02-22T02:56:29.526Z,-3.60
2018-02-22T02:58:57.728Z,-3.60
2018-02-22T03:01:26.289Z,-3.60
2018-02-22T03:03:55.257Z,-3.70
2018-02-22T03:06:23.509Z,-3.70
2018-02-22T03:08:51.745Z,-3.70
2018-02-22T03:11:20.827Z,-3.80
2018-02-22T03:13:49.819Z,-3.80
2018-02-22T03:16:18.049Z,-3.80
2018-02-22T03:18:46.265Z,-3.80
2018-02-22T03:21:14.466Z,-3.90
2018-02-22T03:23:42.744Z,-3.90
2018-02-22T03:26:10.945Z,-3.90
2018-02-22T03:28:39.169Z,-3.90
2018-02-22T03:31:07.429Z,-3.90
2018-02-22T03:33:35.636Z,-3.90
2018-02-22T03:36:04.612Z,-3.90
2018-02-22T03:38:33.680Z,-3.90
2018-02-22T03:41:01.969Z,-3.90
2018-02-22T03:43:30.184Z,-3.90
2018-02-22T03:45:58.498Z,-3.90
2018-02-22T03:48:27.444Z,-3.90
2018-02-22T03:50:55.713Z,-3.90
2018-02-22T03:53:24.797Z,-3.90
2018-02-22T03:55:53.021Z,-3.90
2018-02-22T03:58:21.240Z,-3.90
2018-02-22T04:00:49.482Z,-3.90
2018-02-22T04:03:17.712Z,-4.00
2018-02-22T04:05:45.917Z,-4.00
2018-02-22T04:08:14.169Z,-4.00
2018-02-22T04:10:42.394Z,-4.00
2018-02-22T04:13:10.591Z,-3.90
2018-02-22T04:15:38.840Z,-3.90
2018-02-22T04:18:07.041Z,-4.00
2018-02-22T04:20:35.334Z,-4.00
2018-02-22T04:23:04.431Z,-4.00
2018-02-22T04:25:32.616Z,-4.00
2018-02-22T04:28:00.831Z,-4.00
2018-02-22T04:30:29.124Z,-4.00
2018-02-22T04:32:57.360Z,-4.00
2018-02-22T04:35:25.618Z,-4.10
2018-02-22T04:37:54.642Z,-4.20
2018-02-22T04:40:22.942Z,-4.20
2018-02-22T04:42:51.148Z,-4.20
2018-02-22T04:45:21.383Z,-4.30
2018-02-22T04:47:50.344Z,-4.30
2018-02-22T04:50:18.655Z,-4.30
2018-02-22T04:52:47.741Z,-4.40
2018-02-22T04:55:16.728Z,-4.40
2018-02-22T04:57:44.970Z,-4.40
2018-02-22T05:00:13.244Z,-4.40
2018-02-22T05:02:41.456Z,-4.40
2018-02-22T05:05:10.425Z,-4.40
2018-02-22T05:07:38.692Z,-4.40
2018-02-22T05:10:06.896Z,-4.50
2018-02-22T05:12:35.096Z,-4.40
2018-02-22T05:15:03.388Z,-4.50
2018-02-22T05:17:31.616Z,-4.50
2018-02-22T05:19:59.842Z,-4.40
2018-02-22T05:22:28.067Z,-4.40
2018-02-22T05:24:56.305Z,-4.50
2018-02-22T05:27:24.751Z,-4.50
2018-02-22T05:29:53.112Z,-4.40
2018-02-22T05:32:22.106Z,-4.30
2018-02-22T05:34:50.535Z,-4.30
2018-02-22T05:37:18.824Z,-4.00
2018-02-22T05:39:47.079Z,-3.70
2018-02-22T05:42:15.361Z,-3.70
2018-02-22T05:44:43.593Z,-3.80
2018-02-22T05:47:12.575Z,-3.30
2018-02-22T05:49:40.824Z,-3.30
2018-02-22T05:52:09.090Z,-3.10
2018-02-22T05:54:37.337Z,-3.10
2018-02-22T05:57:05.550Z,-3.20
2018-02-22T05:59:33.772Z,-3.20
2018-02-22T06:02:02.812Z,-3.00
2018-02-22T06:04:31.073Z,-3.00
2018-02-22T06:06:59.284Z,-3.10
2018-02-22T06:09:27.502Z,-3.10
2018-02-22T06:11:55.829Z,-3.10
2018-02-22T06:14:24.086Z,-3.00
2018-02-22T06:16:52.297Z,-3.00
2018-02-22T06:19:20.724Z,-3.00
2018-02-22T06:21:49.740Z,-3.00
2018-02-22T06:24:17.990Z,-3.00
2018-02-22T06:26:46.400Z,-3.00
2018-02-22T06:29:14.631Z,-2.90
2018-02-22T06:31:43.605Z,-2.90
2018-02-22T06:34:11.814Z,-2.90
2018-02-22T06:36:40.042Z,-2.90
2018-02-22T06:39:08.264Z,-2.90
2018-02-22T06:41:36.460Z,-2.90
2018-02-22T06:44:05.965Z,-2.80
2018-02-22T06:46:34.313Z,-2.70
2018-02-22T06:49:03.297Z,-2.70
2018-02-22T06:51:32.304Z,-2.80
2018-02-22T06:54:00.522Z,-2.80
2018-02-22T06:56:28.841Z,-2.80
2018-02-22T06:58:57.830Z,-2.80
2018-02-22T07:01:26.799Z,-2.80
2018-02-22T07:03:55.013Z,-2.80
2018-02-22T07:06:23.280Z,-2.80
2018-02-22T07:08:51.492Z,-2.80
2018-02-22T07:11:20.100Z,-2.80
2018-02-22T07:13:48.438Z,-2.70
2018-02-22T07:16:16.727Z,-2.70
2018-02-22T07:18:44.924Z,-2.80
2018-02-22T07:21:13.168Z,-2.80
2018-02-22T07:23:41.372Z,-2.70
2018-02-22T07:26:09.581Z,-2.70
2018-02-22T07:28:37.882Z,-2.70
2018-02-22T07:31:06.162Z,-2.70
2018-02-22T07:33:34.416Z,-2.70
2018-02-22T07:36:03.451Z,-2.70
2018-02-22T07:38:31.680Z,-2.70
2018-02-22T07:40:59.897Z,-2.60
2018-02-22T07:43:28.276Z,-2.60
2018-02-22T07:45:56.500Z,-2.50
2018-02-22T07:48:24.692Z,-2.40
2018-02-22T07:53:20.718Z,-2.10
2018-02-22T07:55:48.951Z,-1.80
2018-02-22T07:58:17.156Z,-1.60
2018-02-22T08:00:45.390Z,-1.50
2018-02-22T08:03:13.647Z,-1.50
2018-02-22T08:05:41.809Z,-1.30
2018-02-22T08:08:10.801Z,-1.20
2018-02-22T08:10:39.901Z,-1.10
2018-02-22T08:13:08.873Z,-0.90
2018-02-22T08:15:37.156Z,-0.90
2018-02-22T08:18:06.138Z,-0.70
2018-02-22T08:20:34.341Z,-0.80
2018-02-22T08:23:02.641Z,-0.60
2018-02-22T08:25:30.821Z,-0.50
2018-02-22T08:27:59.169Z,-0.40
2018-02-22T08:30:27.453Z,-0.30
2018-02-22T08:32:55.652Z,-0.20
2018-02-22T08:35:23.901Z,-0.10
2018-02-22T08:37:52.172Z,0.20
2018-02-22T08:40:21.305Z,0.20
2018-02-22T08:42:49.563Z,0.20
2018-02-22T08:45:18.558Z,0.40
2018-02-22T08:47:46.845Z,0.40
2018-02-22T08:50:15.135Z,0.50
2018-02-22T08:52:43.430Z,0.60
2018-02-22T08:55:11.693Z,0.70
2018-02-22T08:57:40.035Z,0.60
2018-02-22T09:00:08.515Z,0.70
2018-02-22T09:02:37.483Z,0.80
2018-02-22T09:05:05.666Z,0.80
2018-02-22T09:07:34.769Z,0.90
2018-02-22T09:10:02.977Z,0.90
2018-02-22T09:12:31.296Z,1.10
2018-02-22T09:14:59.682Z,1.50
2018-02-22T09:17:28.682Z,1.50
2018-02-22T09:19:57.796Z,1.60
2018-02-22T09:22:26.073Z,1.60
2018-02-22T09:24:54.300Z,1.70
2018-02-22T09:27:22.556Z,1.60
2018-02-22T09:29:50.780Z,1.50
2018-02-22T09:32:19.796Z,1.50
2018-02-22T09:34:49.041Z,1.60
2018-02-22T09:37:17.268Z,1.50
2018-02-22T09:39:45.483Z,1.30
2018-02-22T09:42:13.700Z,1.50
2018-02-22T09:44:42.741Z,1.60
2018-02-22T09:47:10.945Z,1.50
2018-02-22T09:49:39.133Z,2.20
2018-02-22T09:52:08.194Z,4.00
2018-02-22T09:54:36.385Z,3.90
2018-02-22T09:57:04.620Z,3.70
2018-02-22T09:59:32.976Z,4.20
2018-02-22T10:02:01.182Z,5.10
2018-02-22T10:04:29.386Z,5.70
2018-02-22T10:06:57.629Z,4.30
2018-02-22T10:09:25.845Z,4.20
2018-02-22T10:11:54.077Z,4.90
2018-02-22T10:14:22.316Z,5.20
2018-02-22T10:16:51.296Z,5.60
2018-02-22T10:19:20.271Z,6.60
2018-02-22T10:21:48.526Z,6.40
2018-02-22T10:24:16.717Z,5.20
2018-02-22T10:26:44.913Z,4.70
2018-02-22T10:29:13.973Z,5.70
2018-02-22T10:31:42.170Z,5.70
2018-02-22T10:34:10.402Z,6.20
2018-02-22T10:36:38.640Z,6.60
2018-02-22T10:39:07.631Z,8.20
2018-02-22T10:41:35.821Z,8.20
2018-02-22T10:44:04.093Z,8.10
2018-02-22T10:46:33.056Z,8.70
2018-02-22T10:49:01.294Z,8.70
2018-02-22T10:51:32.685Z,7.10
2018-02-22T10:54:01.094Z,7.10
2018-02-22T10:56:30.055Z,7.40
2018-02-22T10:58:58.312Z,7.30
2018-02-22T11:01:32.156Z,8.00
2018-02-22T11:04:01.200Z,7.20
2018-02-22T11:06:29.398Z,7.20
2018-02-22T11:08:57.597Z,7.00
2018-02-22T11:11:28.080Z,6.40
2018-02-22T11:13:56.296Z,6.30
2018-02-22T11:16:24.601Z,6.80
2018-02-22T11:18:52.833Z,7.40
2018-02-22T11:21:21.076Z,8.30
2018-02-22T11:23:49.612Z,6.50
2018-02-22T11:26:17.848Z,6.70
2018-02-22T11:28:46.041Z,5.40
2018-02-22T11:31:14.236Z,5.30
2018-02-22T11:33:43.309Z,5.30
2018-02-22T11:36:11.525Z,5.30
2018-02-22T11:38:39.758Z,5.10
2018-02-22T11:41:07.977Z,5.10
2018-02-22T11:43:37.485Z,4.30
2018-02-22T11:46:05.709Z,4.70
2018-02-22T11:48:33.961Z,3.90
2018-02-22T11:51:02.189Z,4.30
2018-02-22T11:53:31.161Z,4.70
2018-02-22T11:56:00.676Z,4.70
2018-02-22T11:58:28.876Z,4.00
2018-02-22T12:00:57.112Z,3.70
2018-02-22T12:03:25.429Z,4.30
2018-02-22T12:05:54.398Z,4.70
2018-02-22T12:08:22.646Z,4.70
2018-02-22T12:10:50.873Z,4.80
2018-02-22T12:13:19.076Z,5.80
2018-02-22T12:15:47.276Z,6.10
2018-02-22T12:18:15.725Z,7.00
2018-02-22T12:20:43.992Z,7.90
2018-02-22T12:23:12.195Z,8.20
2018-02-22T12:25:40.443Z,8.90
2018-02-22T12:28:08.668Z,9.40
2018-02-22T12:30:36.953Z,11.50
2018-02-22T12:33:05.231Z,10.20
2018-02-22T12:35:33.416Z,12.20
2018-02-22T12:38:02.492Z,11.30
2018-02-22T12:40:30.712Z,11.20
2018-02-22T12:42:58.914Z,12.70
2018-02-22T12:45:27.543Z,10.50
2018-02-22T12:47:55.744Z,11.80
2018-02-22T12:50:23.951Z,11.30
2018-02-22T12:52:52.193Z,10.10
2018-02-22T12:55:20.412Z,12.00
2018-02-22T12:57:48.672Z,10.20
2018-02-22T13:00:16.880Z,10.30
2018-02-22T13:02:45.136Z,9.30
2018-02-22T13:05:13.332Z,9.20
2018-02-22T13:07:41.539Z,7.70
2018-02-22T13:10:10.551Z,8.60
2018-02-22T13:12:38.846Z,8.60
2018-02-22T13:15:07.051Z,8.30
2018-02-22T13:17:35.344Z,7.70
2018-02-22T13:20:03.641Z,7.80
2018-02-22T13:22:31.856Z,5.70
2018-02-22T13:25:00.126Z,5.90
2018-02-22T13:27:28.429Z,5.50
2018-02-22T13:29:56.701Z,6.00
2018-02-22T13:32:24.969Z,6.70
2018-02-22T13:34:53.169Z,5.70
2018-02-22T13:37:28.104Z,7.20
2018-02-22T13:39:57.064Z,6.10
2018-02-22T13:42:25.395Z,6.10
2018-02-22T13:45:06.139Z,5.20
2018-02-22T13:47:34.381Z,5.20
2018-02-22T13:50:14.317Z,4.70
2018-02-22T13:52:42.523Z,4.70
2018-02-22T13:55:10.713Z,4.30
2018-02-22T13:57:38.935Z,4.20
2018-02-22T14:00:07.149Z,3.70
2018-02-22T14:02:35.388Z,3.60
2018-02-22T14:05:04.921Z,3.60
2018-02-22T14:07:33.113Z,3.50
2018-02-22T14:10:01.324Z,3.80
2018-02-22T14:12:29.634Z,3.70
2018-02-22T14:14:57.838Z,3.50
2018-02-22T14:17:26.049Z,3.60
2018-02-22T14:19:55.068Z,3.70
2018-02-22T14:22:23.280Z,3.60
2018-02-22T14:27:16.392Z,3.20
2018-02-22T14:29:44.590Z,3.20
2018-02-22T14:32:12.818Z,3.20
2018-02-22T14:34:41.053Z,3.40
2018-02-22T14:37:09.262Z,3.40
2018-02-22T14:39:37.529Z,3.40
2018-02-22T14:42:05.850Z,3.40
2018-02-22T14:44:34.821Z,3.40
2018-02-22T14:47:03.118Z,3.40
2018-02-22T14:49:31.497Z,3.40
2018-02-22T14:51:59.750Z,3.40
2018-02-22T14:54:28.752Z,3.30
2018-02-22T14:56:57.838Z,3.10
2018-02-22T14:59:26.060Z,3.10
2018-02-22T15:01:54.296Z,3.00
2018-02-22T15:04:22.514Z,3.10
2018-02-22T15:06:50.740Z,3.00
2018-02-22T15:09:18.924Z,2.90
2018-02-22T15:11:48.027Z,2.90
2018-02-22T15:14:16.987Z,2.80
2018-02-22T15:16:45.177Z,2.80
2018-02-22T15:19:14.459Z,2.90
2018-02-22T15:21:42.647Z,2.90
2018-02-22T15:24:10.957Z,2.90
2018-02-22T15:26:39.260Z,2.90
2018-02-22T15:29:07.460Z,2.90
2018-02-22T15:31:35.676Z,2.90
2018-02-22T15:34:04.967Z,2.80
2018-02-22T15:36:33.958Z,2.80
2018-02-22T15:39:02.951Z,2.80
2018-02-22T15:41:32.015Z,2.70
2018-02-22T15:44:00.204Z,2.70
2018-02-22T15:46:29.877Z,2.60
2018-02-22T15:48:58.945Z,2.50
2018-02-22T15:51:27.153Z,2.50
2018-02-22T15:53:55.357Z,2.50
2018-02-22T15:56:23.693Z,2.50
2018-02-22T15:58:52.625Z,2.40
2018-02-22T16:01:20.914Z,2.40
2018-02-22T16:03:50.098Z,2.40
2018-02-22T16:06:18.360Z,2.40
2018-02-22T16:08:46.570Z,2.30
2018-02-22T16:11:15.629Z,2.20
2018-02-22T16:13:43.917Z,2.20
2018-02-22T16:16:12.265Z,2.20
2018-02-22T16:18:40.844Z,2.10
2018-02-22T16:21:09.061Z,2.10
2018-02-22T16:23:37.261Z,2.00
2018-02-22T16:26:05.501Z,2.00
2018-02-22T16:28:33.731Z,1.90
2018-02-22T16:31:02.736Z,1.60
2018-02-22T16:33:31.049Z,1.60
2018-02-22T16:35:59.250Z,1.50
2018-02-22T16:38:28.225Z,1.40
2018-02-22T16:40:56.510Z,1.40
2018-02-22T16:43:24.709Z,1.40
2018-02-22T16:45:52.934Z,1.40
2018-02-22T16:48:21.203Z,1.40
2018-02-22T16:50:49.470Z,1.40
2018-02-22T16:53:17.680Z,1.30
2018-02-22T16:55:45.929Z,1.30
2018-02-22T16:58:14.125Z,1.10
2018-02-22T17:00:42.342Z,1.00
2018-02-22T17:03:11.328Z,0.90
2018-02-22T17:05:39.557Z,0.90
2018-02-22T17:08:07.757Z,0.80
2018-02-22T17:10:36.803Z,0.80
2018-02-22T17:13:05.009Z,0.70
2018-02-22T17:15:33.218Z,0.60
2018-02-22T17:18:01.456Z,0.60
2018-02-22T17:20:29.648Z,0.60
2018-02-22T17:22:58.612Z,0.50
2018-02-22T17:25:26.428Z,0.50
2018-02-22T17:28:00.300Z,0.50
2018-02-22T17:30:34.201Z,0.50
2018-02-22T17:33:02.401Z,0.40
2018-02-22T17:35:37.158Z,0.30
2018-02-22T17:38:06.268Z,0.20
2018-02-22T17:40:55.729Z,0.20
2018-02-22T17:43:23.982Z,0.20
2018-02-22T17:45:52.179Z,0.20
2018-02-22T17:48:21.200Z,0.10
2018-02-22T17:50:49.387Z,0.00
2018-02-22T17:53:17.769Z,0.00
2018-02-22T17:55:46.010Z,0.00
2018-02-22T17:58:14.397Z,0.10
2018-02-22T18:00:42.608Z,0.00
2018-02-22T18:03:10.936Z,-0.10
2018-02-22T18:05:39.144Z,-0.10
2018-02-22T18:08:07.359Z,-0.20
2018-02-22T18:10:36.386Z,-0.20
2018-02-22T18:13:04.585Z,-0.20
2018-02-22T18:15:33.156Z,-0.20
2018-02-22T18:18:01.487Z,-0.30
2018-02-22T18:20:30.507Z,-0.20
2018-02-22T18:22:58.812Z,-0.30
2018-02-22T18:25:27.081Z,-0.30
2018-02-22T18:27:56.155Z,-0.30
2018-02-22T18:30:24.410Z,-0.30
2018-02-22T18:32:53.508Z,-0.40
2018-02-22T18:35:22.465Z,-0.40
2018-02-22T18:37:58.520Z,-0.40
2018-02-22T18:40:32.468Z,-0.30
2018-02-22T18:43:01.533Z,-0.40
2018-02-22T18:45:29.735Z,-0.40
2018-02-22T18:47:58.705Z,-0.40
2018-02-22T18:50:26.956Z,-0.40
2018-02-22T18:52:55.179Z,-0.50
2018-02-22T18:55:24.201Z,-0.50
2018-02-22T18:57:52.542Z,-0.50
2018-02-22T19:00:21.550Z,-0.60
2018-02-22T19:02:50.551Z,-0.60
2018-02-22T19:05:18.854Z,-0.60
2018-02-22T19:07:47.116Z,-0.60
2018-02-22T19:10:15.625Z,-0.60
2018-02-22T19:12:43.925Z,-0.60
2018-02-22T19:15:12.185Z,-0.60
2018-02-22T19:17:40.524Z,-0.60
2018-02-22T19:20:08.776Z,-0.60
2018-02-22T19:22:36.969Z,-0.60
2018-02-22T19:25:05.349Z,-0.70
2018-02-22T19:27:34.035Z,-0.70
2018-02-22T19:30:02.332Z,-0.80
2018-02-22T19:32:30.580Z,-0.80
2018-02-22T19:34:58.872Z,-0.70
2018-02-22T19:37:27.179Z,-0.70
2018-02-22T19:39:57.609Z,-0.80
2018-02-22T19:42:26.084Z,-0.80
2018-02-22T19:44:55.492Z,-0.80
2018-02-22T19:47:23.727Z,-0.80
2018-02-22T19:49:52.817Z,-0.80
2018-02-22T19:52:22.221Z,-0.90
2018-02-22T19:54:51.285Z,-0.90
2018-02-22T19:57:19.534Z,-1.00
2018-02-22T19:59:47.758Z,-0.90
2018-02-22T20:02:16.777Z,-0.90
2018-02-22T20:04:45.058Z,-0.90
2018-02-22T20:07:13.265Z,-1.00
2018-02-22T20:09:42.238Z,-1.10
2018-02-22T20:12:10.636Z,-1.00
2018-02-22T20:14:38.914Z,-1.00
2018-02-22T20:17:07.128Z,-1.10
2018-02-22T20:19:35.541Z,-1.10
2018-02-22T20:22:03.820Z,-1.10
2018-02-22T20:24:32.066Z,-1.20
2018-02-22T20:27:00.376Z,-1.20
2018-02-22T20:29:28.616Z,-1.20
2018-02-22T20:31:56.940Z,-1.20
2018-02-22T20:34:25.200Z,-1.20
2018-02-22T20:36:53.478Z,-1.30
2018-02-22T20:39:22.869Z,-1.30
2018-02-22T20:41:51.128Z,-1.30
2018-02-22T20:44:20.144Z,-1.30
2018-02-22T20:46:48.352Z,-1.20
2018-02-22T20:49:16.582Z,-1.30
2018-02-22T20:51:49.561Z,-1.40
2018-02-22T20:54:18.680Z,-1.30
2018-02-22T20:56:46.926Z,-1.40
2018-02-22T20:59:15.650Z,-1.30
2018-02-22T21:01:43.913Z,-1.40
2018-02-22T21:04:13.675Z,-1.40
2018-02-22T21:06:41.873Z,-1.40
2018-02-22T21:09:10.112Z,-1.40
2018-02-22T21:11:38.334Z,-1.40
2018-02-22T21:14:07.314Z,-1.40
2018-02-22T21:16:36.771Z,-1.40
2018-02-22T21:19:05.037Z,-1.40
2018-02-22T21:21:33.249Z,-1.50
2018-02-22T21:24:01.482Z,-1.50
2018-02-22T21:26:29.698Z,-1.40
2018-02-22T21:28:57.910Z,-1.50
2018-02-22T21:31:26.916Z,-1.60
2018-02-22T21:33:55.373Z,-1.70
2018-02-22T21:36:23.571Z,-1.60
2018-02-22T21:38:52.596Z,-1.60
2018-02-22T21:41:22.087Z,-1.60
2018-02-22T21:43:50.294Z,-1.60
2018-02-22T21:46:18.537Z,-1.70
2018-02-22T21:48:47.487Z,-1.70
2018-02-22T21:51:15.849Z,-1.70
2018-02-22T21:53:44.164Z,-1.70
2018-02-22T21:56:12.383Z,-1.70
2018-02-22T21:58:40.774Z,-1.80
2018-02-22T22:01:09.037Z,-1.80
2018-02-22T22:03:37.240Z,-1.90
2018-02-22T22:06:05.668Z,-2.00
2018-02-22T22:08:34.341Z,-2.00
2018-02-22T22:11:02.874Z,-2.00
2018-02-22T22:13:31.903Z,-1.90
2018-02-22T22:16:00.905Z,-1.90
2018-02-22T22:18:29.888Z,-1.90
2018-02-22T22:20:58.083Z,-2.00
2018-02-22T22:23:28.762Z,-2.00
2018-02-22T22:25:56.965Z,-2.00
2018-02-22T22:28:25.211Z,-2.00
2018-02-22T22:30:53.484Z,-2.00
2018-02-22T22:33:21.688Z,-2.00
2018-02-22T22:35:49.893Z,-2.10
2018-02-22T22:38:18.126Z,-2.10
2018-02-22T22:40:46.346Z,-2.10
2018-02-22T22:43:14.700Z,-2.10
2018-02-22T22:45:44.105Z,-2.10
2018-02-22T22:48:13.072Z,-2.10
2018-02-22T22:50:41.350Z,-2.20
2018-02-22T22:53:09.607Z,-2.20
2018-02-22T22:55:37.849Z,-2.20
2018-02-22T22:58:06.065Z,-2.30
2018-02-22T23:00:34.299Z,-2.30
2018-02-22T23:03:02.504Z,-2.20
2018-02-22T23:05:30.696Z,-2.20
2018-02-22T23:08:00.169Z,-2.20
2018-02-22T23:10:28.592Z,-2.20
2018-02-22T23:12:56.870Z,-2.30
2018-02-22T23:15:25.093Z,-2.30
2018-02-22T23:17:53.296Z,-2.40
2018-02-22T23:20:21.496Z,-2.40
2018-02-22T23:22:49.748Z,-2.30
2018-02-22T23:25:17.953Z,-2.40
2018-02-22T23:27:46.930Z,-2.40
2018-02-22T23:30:15.337Z,-2.40
2018-02-22T23:32:44.408Z,-2.40
2018-02-22T23:35:12.578Z,-2.40
2018-02-22T23:37:40.810Z,-2.40
2018-02-22T23:40:12.587Z,-2.50
2018-02-22T23:42:43.229Z,-2.50
2018-02-22T23:45:11.432Z,-2.50
2018-02-22T23:47:39.644Z,-2.60
2018-02-22T23:50:07.930Z,-2.60
2018-02-22T23:52:36.133Z,-2.60
2018-02-22T23:55:04.416Z,-2.60
2018-02-22T23:57:32.772Z,-2.50
